createdAt,value
2022-11-30T00:01:16.300Z,17.70
2022-11-30T00:03:45.010Z,17.70
2022-11-30T00:06:14.862Z,17.83
2022-11-30T00:08:44.615Z,19.23
2022-11-30T00:11:14.451Z,17.90
2022-11-30T00:13:42.915Z,19.23
2022-11-30T00:16:11.621Z,17.63
2022-11-30T00:18:40.114Z,19.93
2022-11-30T00:21:11.616Z,18.43
2022-11-30T00:23:41.313Z,20.60
2022-11-30T00:26:12.901Z,20.17
2022-11-30T00:28:41.768Z,21.23
2022-11-30T00:31:13.138Z,20.83
2022-11-30T00:33:41.542Z,20.37
2022-11-30T00:36:12.579Z,20.77
2022-11-30T00:38:40.852Z,20.80
2022-11-30T00:41:11.036Z,20.63
2022-11-30T00:43:39.377Z,21.33
2022-11-30T00:46:09.184Z,22.30
2022-11-30T00:48:37.399Z,21.67
2022-11-30T00:51:05.860Z,21.63
2022-11-30T00:53:33.881Z,21.93
2022-11-30T00:56:02.314Z,21.00
2022-11-30T00:58:31.669Z,21.63
2022-11-30T01:00:59.853Z,21.33
2022-11-30T01:03:28.024Z,20.33
2022-11-30T01:05:56.108Z,20.73
2022-11-30T01:08:26.521Z,22.17
2022-11-30T01:10:57.781Z,20.40
2022-11-30T01:13:25.924Z,20.90
2022-11-30T01:15:55.290Z,21.63
2022-11-30T01:18:23.395Z,19.87
2022-11-30T01:20:51.382Z,20.70
2022-11-30T01:23:19.372Z,21.03
2022-11-30T01:25:55.729Z,19.07
2022-11-30T01:28:23.718Z,19.20
2022-11-30T01:30:59.280Z,20.00
2022-11-30T01:33:27.609Z,20.93
2022-11-30T01:36:03.444Z,19.03
2022-11-30T01:38:34.018Z,18.23
2022-11-30T01:41:02.277Z,21.37
2022-11-30T01:43:42.094Z,20.93
2022-11-30T01:46:23.486Z,19.67
2022-11-30T01:48:58.067Z,19.80
2022-11-30T01:51:29.433Z,21.17
2022-11-30T01:53:57.622Z,18.37
2022-11-30T01:56:25.856Z,20.00
2022-11-30T01:58:54.107Z,20.60
2022-11-30T02:01:23.819Z,19.73
2022-11-30T02:04:00.017Z,18.73
2022-11-30T02:06:28.088Z,19.83
2022-11-30T02:08:56.642Z,18.70
2022-11-30T02:11:28.378Z,22.07
2022-11-30T02:14:13.586Z,20.47
2022-11-30T02:16:54.028Z,20.87
2022-11-30T02:19:49.743Z,22.07
2022-11-30T02:22:29.458Z,21.03
2022-11-30T02:25:08.347Z,19.83
2022-11-30T02:27:51.604Z,23.33
2022-11-30T02:30:23.012Z,23.03
2022-11-30T02:32:57.990Z,23.20
2022-11-30T02:35:30.185Z,21.73
2022-11-30T02:37:59.708Z,22.57
2022-11-30T02:40:28.385Z,22.27
2022-11-30T02:42:59.021Z,22.97
2022-11-30T02:45:34.772Z,23.10
2022-11-30T02:48:09.357Z,26.37
2022-11-30T02:50:42.105Z,23.83
2022-11-30T02:53:10.988Z,24.60
2022-11-30T02:55:39.054Z,24.83
2022-11-30T02:58:07.344Z,25.03
2022-11-30T03:00:36.739Z,27.20
2022-11-30T03:03:05.122Z,24.33
2022-11-30T03:05:33.830Z,25.17
2022-11-30T03:08:01.874Z,26.20
2022-11-30T03:10:29.989Z,27.40
2022-11-30T03:12:59.321Z,26.63
2022-11-30T03:15:28.246Z,24.53
2022-11-30T03:17:57.619Z,22.40
2022-11-30T03:20:25.693Z,26.17
2022-11-30T03:22:53.705Z,26.47
2022-11-30T03:25:21.745Z,24.90
2022-11-30T03:27:49.803Z,24.33
2022-11-30T03:30:17.976Z,25.63
2022-11-30T03:32:45.983Z,24.90
2022-11-30T03:35:15.565Z,24.30
2022-11-30T03:37:43.590Z,25.53
2022-11-30T03:40:12.811Z,24.83
2022-11-30T03:42:41.206Z,24.17
2022-11-30T03:45:09.699Z,25.30
2022-11-30T03:47:38.285Z,22.87
2022-11-30T03:50:07.658Z,23.57
2022-11-30T03:52:37.301Z,22.17
2022-11-30T03:55:05.895Z,23.37
2022-11-30T03:57:34.360Z,25.27
2022-11-30T04:00:02.339Z,24.77
2022-11-30T04:02:30.327Z,23.67
2022-11-30T04:04:58.437Z,22.93
2022-11-30T04:07:26.457Z,24.67
2022-11-30T04:09:56.097Z,25.00
2022-11-30T04:12:24.158Z,22.63
2022-11-30T04:14:52.435Z,22.90
2022-11-30T04:17:20.424Z,22.20
2022-11-30T04:19:48.490Z,21.33
2022-11-30T04:22:16.486Z,22.33
2022-11-30T04:24:44.961Z,21.33
2022-11-30T04:27:14.738Z,23.77
2022-11-30T04:29:42.776Z,23.97
2022-11-30T04:32:11.107Z,24.13
2022-11-30T04:34:39.163Z,23.83
2022-11-30T04:37:07.521Z,19.63
2022-11-30T04:39:35.884Z,19.80
2022-11-30T04:42:04.068Z,22.87
2022-11-30T04:44:33.413Z,22.67
2022-11-30T04:47:01.470Z,23.77
2022-11-30T04:49:29.984Z,21.70
2022-11-30T04:51:58.131Z,21.87
2022-11-30T04:54:26.185Z,23.37
2022-11-30T04:56:54.240Z,21.57
2022-11-30T04:59:22.246Z,23.40
2022-11-30T05:01:51.939Z,23.20
2022-11-30T05:04:20.096Z,24.17
2022-11-30T05:06:48.283Z,22.83
2022-11-30T05:09:16.352Z,27.17
2022-11-30T05:11:44.428Z,24.53
2022-11-30T05:14:12.424Z,25.73
2022-11-30T05:16:40.397Z,27.33
2022-11-30T05:19:10.087Z,28.83
2022-11-30T05:21:41.320Z,24.93
2022-11-30T05:24:13.956Z,27.47
2022-11-30T05:26:42.257Z,23.80
2022-11-30T05:29:12.204Z,25.73
2022-11-30T05:31:41.096Z,24.30
2022-11-30T05:34:10.540Z,24.80
2022-11-30T05:36:38.867Z,24.30
2022-11-30T05:39:07.332Z,24.77
2022-11-30T05:41:35.574Z,26.13
2022-11-30T05:44:04.682Z,23.60
2022-11-30T05:46:37.071Z,23.27
2022-11-30T05:49:08.149Z,23.57
2022-11-30T05:51:38.207Z,23.03
2022-11-30T05:54:06.402Z,23.00
2022-11-30T05:56:34.857Z,24.87
2022-11-30T05:59:02.976Z,23.93
2022-11-30T06:01:31.284Z,23.10
2022-11-30T06:03:59.254Z,25.17
2022-11-30T06:06:29.230Z,25.17
2022-11-30T06:08:58.644Z,27.13
2022-11-30T06:11:26.946Z,24.90
2022-11-30T06:13:55.028Z,24.57
2022-11-30T06:16:23.053Z,26.13
2022-11-30T06:18:51.156Z,25.17
2022-11-30T06:21:24.100Z,23.87
2022-11-30T06:23:52.847Z,24.20
2022-11-30T06:26:22.420Z,26.63
2022-11-30T06:28:50.466Z,25.33
2022-11-30T06:31:18.843Z,26.20
2022-11-30T06:33:46.996Z,23.80
2022-11-30T06:36:15.025Z,25.33
2022-11-30T06:38:43.122Z,26.83
2022-11-30T06:41:12.588Z,24.67
2022-11-30T06:43:42.382Z,25.23
2022-11-30T06:46:11.271Z,24.83
2022-11-30T06:48:39.570Z,24.13
2022-11-30T06:51:08.678Z,27.60
2022-11-30T06:53:37.077Z,27.03
2022-11-30T06:56:10.531Z,25.00
2022-11-30T06:58:39.462Z,26.27
2022-11-30T07:01:10.071Z,24.83
2022-11-30T07:03:38.361Z,25.80
2022-11-30T07:06:09.525Z,24.47
2022-11-30T07:08:38.591Z,24.47
2022-11-30T07:11:07.602Z,23.87
2022-11-30T07:13:35.979Z,22.97
2022-11-30T07:16:06.016Z,22.97
2022-11-30T07:18:35.635Z,25.30
2022-11-30T07:21:05.236Z,27.60
2022-11-30T07:23:55.801Z,24.10
2022-11-30T07:26:25.011Z,25.77
2022-11-30T07:28:57.954Z,26.67
2022-11-30T07:31:27.922Z,24.13
2022-11-30T07:33:58.427Z,24.27
2022-11-30T07:36:27.841Z,24.07
2022-11-30T07:38:57.028Z,22.87
2022-11-30T07:41:25.273Z,24.97
2022-11-30T07:43:53.234Z,24.07
2022-11-30T07:46:21.538Z,22.90
2022-11-30T07:48:49.746Z,25.60
2022-11-30T07:51:20.922Z,23.37
2022-11-30T07:53:49.112Z,24.30
2022-11-30T07:56:19.260Z,25.17
2022-11-30T07:58:47.328Z,24.73
2022-11-30T08:01:17.632Z,23.80
2022-11-30T08:03:46.299Z,22.73
2022-11-30T08:06:15.625Z,23.07
2022-11-30T08:08:46.541Z,24.10
2022-11-30T08:11:16.672Z,21.80
2022-11-30T08:13:45.369Z,23.30
2022-11-30T08:16:15.860Z,23.93
2022-11-30T08:18:44.355Z,23.77
2022-11-30T08:21:14.373Z,22.97
2022-11-30T08:23:45.786Z,23.57
2022-11-30T08:26:15.579Z,23.67
2022-11-30T08:28:44.593Z,24.67
2022-11-30T08:31:14.335Z,26.07
2022-11-30T08:33:42.583Z,27.37
2022-11-30T08:36:12.840Z,30.43
2022-11-30T08:38:42.412Z,33.67
2022-11-30T08:41:14.555Z,29.93
2022-11-30T08:43:43.040Z,30.10
2022-11-30T08:46:42.376Z,34.33
2022-11-30T08:49:20.287Z,39.07
2022-11-30T08:54:39.125Z,34.93
2022-11-30T08:57:08.691Z,37.23
2022-11-30T08:59:36.689Z,34.87
2022-11-30T09:02:06.042Z,36.90
2022-11-30T09:04:34.187Z,34.37
2022-11-30T09:07:02.384Z,37.50
2022-11-30T09:09:30.879Z,34.30
2022-11-30T09:11:58.871Z,33.10
2022-11-30T09:14:28.273Z,36.30
2022-11-30T09:16:56.656Z,37.40
2022-11-30T09:19:27.115Z,36.70
2022-11-30T09:21:55.424Z,36.13
2022-11-30T09:24:23.479Z,35.40
2022-11-30T09:26:51.434Z,33.60
2022-11-30T09:29:19.535Z,34.17
2022-11-30T09:31:49.389Z,32.47
2022-11-30T09:34:17.407Z,33.83
2022-11-30T09:36:45.705Z,35.20
2022-11-30T09:39:13.986Z,35.73
2022-11-30T09:42:17.411Z,34.13
2022-11-30T09:44:53.376Z,31.93
2022-11-30T09:47:45.163Z,35.13
2022-11-30T09:50:16.283Z,34.57
2022-11-30T09:52:48.075Z,36.70
2022-11-30T09:55:23.432Z,36.23
2022-11-30T09:57:55.161Z,34.07
2022-11-30T10:00:24.929Z,36.07
2022-11-30T10:02:57.228Z,36.40
2022-11-30T10:05:29.836Z,34.30
2022-11-30T10:08:22.407Z,34.43
2022-11-30T10:10:59.995Z,34.27
2022-11-30T10:13:43.902Z,36.23
2022-11-30T10:16:20.213Z,35.20
2022-11-30T10:19:00.464Z,32.63
2022-11-30T10:21:44.397Z,32.10
2022-11-30T10:24:23.318Z,35.07
2022-11-30T10:26:55.651Z,31.83
2022-11-30T10:29:30.964Z,33.30
2022-11-30T10:32:00.633Z,31.90
2022-11-30T10:34:35.606Z,32.10
2022-11-30T10:37:11.197Z,30.33
2022-11-30T10:39:44.830Z,31.27
2022-11-30T10:42:17.449Z,33.00
2022-11-30T10:44:53.684Z,31.17
2022-11-30T10:47:26.663Z,32.43
2022-11-30T10:49:56.167Z,32.27
2022-11-30T10:52:28.122Z,29.37
2022-11-30T10:55:03.768Z,33.37
2022-11-30T10:57:33.677Z,36.00
2022-11-30T11:00:06.576Z,34.23
2022-11-30T11:02:38.756Z,33.73
2022-11-30T11:05:17.491Z,33.33
2022-11-30T11:07:53.090Z,30.27
2022-11-30T11:10:24.566Z,34.07
2022-11-30T11:12:55.152Z,34.23
2022-11-30T11:15:25.272Z,31.07
2022-11-30T11:17:54.686Z,33.77
2022-11-30T11:20:36.106Z,32.30
2022-11-30T11:23:05.537Z,31.90
2022-11-30T11:25:35.727Z,33.00
2022-11-30T11:28:13.788Z,30.70
2022-11-30T11:30:42.151Z,29.60
2022-11-30T11:33:22.782Z,30.53
2022-11-30T11:35:53.410Z,31.43
2022-11-30T11:38:27.157Z,31.87
2022-11-30T11:41:02.397Z,31.77
2022-11-30T11:43:32.670Z,30.90
2022-11-30T11:46:03.723Z,31.43
2022-11-30T11:48:36.109Z,31.87
2022-11-30T11:51:08.250Z,30.97
2022-11-30T11:53:47.456Z,30.97
2022-11-30T11:56:22.101Z,30.83
2022-11-30T11:58:56.253Z,34.20
2022-11-30T12:01:41.686Z,34.70
2022-11-30T12:04:45.653Z,30.57
2022-11-30T12:07:28.529Z,34.03
2022-11-30T12:10:16.678Z,35.90
2022-11-30T12:12:55.262Z,30.23
2022-11-30T12:15:32.127Z,31.73
2022-11-30T12:18:15.940Z,31.40
2022-11-30T12:20:56.820Z,29.90
2022-11-30T12:23:46.950Z,30.50
2022-11-30T12:26:26.851Z,31.77
2022-11-30T12:29:08.043Z,32.87
2022-11-30T12:31:47.276Z,33.23
2022-11-30T12:34:20.448Z,34.27
2022-11-30T12:36:57.682Z,33.10
2022-11-30T12:39:42.548Z,36.57
2022-11-30T12:42:16.531Z,34.43
2022-11-30T12:44:53.923Z,33.03
2022-11-30T12:47:40.155Z,34.90
2022-11-30T12:50:25.651Z,32.97
2022-11-30T12:53:03.050Z,32.60
2022-11-30T12:55:39.815Z,33.20
2022-11-30T12:58:17.646Z,34.83
2022-11-30T13:01:00.957Z,33.70
2022-11-30T13:03:40.811Z,34.93
2022-11-30T13:06:12.780Z,36.47
2022-11-30T13:08:52.560Z,34.40
2022-11-30T13:11:28.080Z,32.07
2022-11-30T13:13:58.636Z,33.47
2022-11-30T13:16:27.570Z,31.27
2022-11-30T13:19:03.000Z,31.30
2022-11-30T13:21:34.267Z,35.90
2022-11-30T13:24:09.920Z,32.00
2022-11-30T13:26:45.015Z,32.77
2022-11-30T13:29:28.179Z,31.53
2022-11-30T13:32:05.283Z,32.60
2022-11-30T13:34:34.043Z,28.27
2022-11-30T13:37:04.812Z,32.53
2022-11-30T13:39:49.598Z,31.20
2022-11-30T13:42:38.367Z,30.93
2022-11-30T13:45:32.629Z,30.73
2022-11-30T13:48:16.695Z,29.47
2022-11-30T13:50:48.896Z,33.63
2022-11-30T13:53:27.352Z,29.93
2022-11-30T13:56:33.823Z,32.27
2022-11-30T13:59:36.179Z,28.47
2022-11-30T14:05:39.423Z,28.60
2022-11-30T14:08:31.311Z,29.30
2022-11-30T14:11:32.731Z,28.07
2022-11-30T14:14:45.486Z,42.50
2022-11-30T14:21:27.401Z,63.17
2022-11-30T16:25:07.322Z,30.27
2022-11-30T16:27:35.557Z,29.47
2022-11-30T16:30:03.534Z,32.30
2022-11-30T16:32:31.534Z,32.73
2022-11-30T16:34:59.610Z,28.07
2022-11-30T16:37:29.299Z,28.87
2022-11-30T16:39:57.227Z,29.10
2022-11-30T16:42:25.295Z,31.90
2022-11-30T16:44:53.576Z,30.77
2022-11-30T16:47:21.945Z,30.30
2022-11-30T16:49:50.152Z,30.33
2022-11-30T16:52:18.519Z,31.00
2022-11-30T16:54:47.881Z,28.03
2022-11-30T16:57:16.212Z,30.57
2022-11-30T16:59:44.280Z,29.43
2022-11-30T17:02:19.607Z,31.53
2022-11-30T17:04:48.106Z,29.97
2022-11-30T17:07:16.364Z,28.63
2022-11-30T17:09:44.751Z,30.30
2022-11-30T17:12:14.093Z,28.10
2022-11-30T17:14:42.364Z,31.07
2022-11-30T17:17:10.668Z,28.40
2022-11-30T17:19:38.930Z,30.00
2022-11-30T17:22:07.340Z,29.83
2022-11-30T17:24:35.726Z,31.20
2022-11-30T17:27:05.532Z,28.50
2022-11-30T17:29:34.931Z,33.70
2022-11-30T17:32:03.318Z,30.43
2022-11-30T17:34:32.001Z,30.27
2022-11-30T17:37:02.909Z,31.87
2022-11-30T17:39:31.168Z,29.20
2022-11-30T17:41:59.304Z,30.17
2022-11-30T17:44:27.330Z,30.23
2022-11-30T17:46:56.809Z,30.13
2022-11-30T17:49:24.874Z,32.83
2022-11-30T17:51:52.834Z,29.67
2022-11-30T17:54:21.201Z,29.13
2022-11-30T17:56:49.525Z,34.23
2022-11-30T17:59:17.515Z,32.23
2022-11-30T18:01:46.342Z,29.90
2022-11-30T18:04:16.115Z,34.00
2022-11-30T18:06:44.371Z,29.10
2022-11-30T18:09:12.445Z,30.47
2022-11-30T18:11:40.570Z,30.13
2022-11-30T18:14:08.865Z,30.20
2022-11-30T18:16:38.665Z,28.30
2022-11-30T18:19:11.924Z,28.63
2022-11-30T18:21:44.211Z,28.47
2022-11-30T18:24:12.787Z,30.77
2022-11-30T18:26:41.068Z,25.63
2022-11-30T18:29:09.686Z,27.47
2022-11-30T18:31:37.683Z,27.93
2022-11-30T18:34:07.171Z,29.53
2022-11-30T18:36:35.792Z,27.73
2022-11-30T18:39:05.526Z,30.80
2022-11-30T18:41:33.531Z,28.03
2022-11-30T18:44:01.645Z,27.87
2022-11-30T18:46:29.885Z,29.13
2022-11-30T18:48:59.155Z,31.57
2022-11-30T18:51:29.193Z,28.47
2022-11-30T18:53:59.357Z,30.70
2022-11-30T18:56:30.312Z,28.47
2022-11-30T18:58:59.935Z,30.47
2022-11-30T19:01:33.811Z,28.57
2022-11-30T19:04:03.121Z,28.10
2022-11-30T19:06:33.233Z,31.03
2022-11-30T19:09:02.821Z,28.07
2022-11-30T19:11:33.798Z,28.33
2022-11-30T19:14:02.515Z,29.17
2022-11-30T19:16:31.711Z,28.63
2022-11-30T19:19:01.583Z,27.17
2022-11-30T19:21:30.163Z,28.70
2022-11-30T19:23:59.159Z,29.53
2022-11-30T19:26:28.940Z,31.27
2022-11-30T19:28:59.088Z,27.30
2022-11-30T19:31:27.986Z,27.27
2022-11-30T19:33:56.991Z,28.57
2022-11-30T19:36:26.819Z,28.87
2022-11-30T19:38:54.907Z,27.40
2022-11-30T19:41:23.068Z,27.07
2022-11-30T19:43:59.771Z,26.10
2022-11-30T19:46:34.005Z,26.43
2022-11-30T19:49:02.676Z,28.03
2022-11-30T19:51:32.351Z,28.43
2022-11-30T19:54:00.881Z,29.53
2022-11-30T19:56:31.197Z,29.37
2022-11-30T19:59:04.469Z,28.77
2022-11-30T20:01:35.798Z,28.30
2022-11-30T20:04:04.858Z,28.47
2022-11-30T20:06:37.333Z,30.43
2022-11-30T20:09:06.183Z,28.67
2022-11-30T20:11:34.663Z,28.43
2022-11-30T20:14:03.084Z,29.80
2022-11-30T20:16:31.456Z,30.47
2022-11-30T20:19:02.657Z,32.83
2022-11-30T20:21:32.526Z,32.40
2022-11-30T20:24:02.532Z,31.10
2022-11-30T20:26:32.186Z,31.70
2022-11-30T20:29:02.073Z,31.47
2022-11-30T20:31:31.240Z,29.27
2022-11-30T20:34:01.119Z,31.97
2022-11-30T20:36:29.167Z,26.83
2022-11-30T20:38:57.171Z,27.67
2022-11-30T20:41:25.763Z,29.23
2022-11-30T20:43:54.454Z,25.80
2022-11-30T20:46:25.524Z,28.97
2022-11-30T20:48:54.558Z,25.47
2022-11-30T20:51:31.333Z,29.20
2022-11-30T20:54:01.151Z,23.77
2022-11-30T20:56:29.207Z,24.30
2022-11-30T20:58:57.485Z,24.80
2022-11-30T21:01:25.803Z,22.67
2022-11-30T21:03:53.873Z,24.73
2022-11-30T21:06:23.392Z,26.33
2022-11-30T21:08:51.453Z,25.60
2022-11-30T21:11:22.039Z,25.17
2022-11-30T21:13:51.899Z,25.83
2022-11-30T21:16:27.226Z,26.37
2022-11-30T21:18:57.879Z,25.20
2022-11-30T21:21:30.411Z,27.90
2022-11-30T21:24:00.000Z,27.70
2022-11-30T21:26:30.592Z,27.53
2022-11-30T21:29:01.905Z,26.33
2022-11-30T21:31:30.421Z,26.27
2022-11-30T21:33:58.553Z,27.33
2022-11-30T21:36:28.641Z,27.10
2022-11-30T21:39:04.621Z,27.97
2022-11-30T21:41:34.644Z,28.90
2022-11-30T21:44:03.138Z,26.73
2022-11-30T21:46:31.637Z,26.10
2022-11-30T21:48:59.908Z,26.87
2022-11-30T21:51:31.566Z,28.70
2022-11-30T21:54:01.973Z,26.67
2022-11-30T21:56:32.316Z,27.10
2022-11-30T21:59:00.899Z,29.23
2022-11-30T22:01:31.076Z,27.67
2022-11-30T22:04:01.722Z,26.87
2022-11-30T22:06:33.299Z,28.43
2022-11-30T22:09:07.706Z,28.63
2022-11-30T22:11:38.740Z,27.40
2022-11-30T22:14:07.906Z,27.03
2022-11-30T22:16:36.736Z,31.20
2022-11-30T22:19:07.301Z,29.50
2022-11-30T22:21:36.989Z,30.20
2022-11-30T22:24:06.898Z,31.23
2022-11-30T22:26:38.214Z,28.40
2022-11-30T22:29:07.793Z,28.37
2022-11-30T22:31:39.338Z,29.40
2022-11-30T22:34:09.368Z,27.43
2022-11-30T22:36:40.667Z,31.13
2022-11-30T22:39:11.915Z,27.93
2022-11-30T22:41:40.891Z,30.57
2022-11-30T22:44:09.267Z,30.43
2022-11-30T22:46:38.806Z,26.40
2022-11-30T22:49:09.454Z,31.50
2022-11-30T22:51:39.256Z,28.47
2022-11-30T22:54:07.918Z,28.23
2022-11-30T22:56:37.773Z,27.40
2022-11-30T22:59:06.638Z,30.27
2022-11-30T23:01:36.366Z,31.47
2022-11-30T23:04:06.521Z,27.43
2022-11-30T23:06:35.726Z,28.90
2022-11-30T23:09:06.911Z,30.10
2022-11-30T23:11:35.436Z,26.50
2022-11-30T23:14:06.205Z,28.23
2022-11-30T23:16:34.350Z,26.97
2022-11-30T23:19:02.639Z,27.43
2022-11-30T23:21:38.885Z,25.47
2022-11-30T23:24:20.172Z,25.00
2022-11-30T23:26:48.445Z,23.90
2022-11-30T23:29:17.500Z,25.27
2022-11-30T23:31:46.521Z,26.23
2022-11-30T23:34:16.532Z,27.50
2022-11-30T23:36:44.857Z,27.37
2022-11-30T23:39:16.648Z,27.87
2022-11-30T23:41:44.928Z,26.37
2022-11-30T23:44:13.526Z,25.80
2022-11-30T23:46:41.924Z,27.57
2022-11-30T23:49:09.951Z,26.53
2022-11-30T23:51:37.912Z,26.53
2022-11-30T23:54:06.285Z,24.87
2022-11-30T23:56:35.692Z,27.07
2022-11-30T23:59:03.720Z,28.03
